Terminal Aerodrome Forecast
Issued by NWS

Home | Current Version | Previous Version | Text Only | Print | Product List | Glossary On
Versions: 1 2 3 4 5 6 7 8 9 10 11 12 13 14 15 16 17 18 19 20 21 22 23 24
000
FTUS45 KBOI 092320
TAFBKE
TAF
KBKE 092320Z 1000/1024 32005KT P6SM VCTS SCT090CB BKN150
      TEMPO 1000/1002 VRB20G30KT -SHRA BKN080
     FM100300 VRB03KT P6SM BKN200
     FM102100 31006KT P6SM SCT250=

USA.gov is the U.S. government's official web portal to all federal, state and local government web resources and services.